createdAt,value
2022-10-09T00:01:02.322Z,9.20
2022-10-09T00:03:39.189Z,9.07
2022-10-09T00:06:07.887Z,7.35
2022-10-09T00:08:36.342Z,8.23
2022-10-09T00:11:07.830Z,7.38
2022-10-09T00:13:35.362Z,8.82
2022-10-09T00:16:03.602Z,8.85
2022-10-09T00:18:30.337Z,7.55
2022-10-09T00:20:57.259Z,9.20
2022-10-09T00:23:24.163Z,6.55
2022-10-09T00:25:59.218Z,8.63
2022-10-09T00:28:28.459Z,8.60
2022-10-09T00:30:55.431Z,7.53
2022-10-09T00:33:22.444Z,5.20
2022-10-09T00:35:49.469Z,6.70
2022-10-09T00:38:16.651Z,8.70
2022-10-09T00:40:43.853Z,10.43
2022-10-09T00:43:17.162Z,8.93
2022-10-09T00:45:55.319Z,8.13
2022-10-09T00:48:22.885Z,11.85
2022-10-09T00:50:55.367Z,9.95
2022-10-09T00:53:26.254Z,9.85
2022-10-09T00:55:53.726Z,11.23
2022-10-09T00:58:21.881Z,10.37
2022-10-09T01:00:49.118Z,10.93
2022-10-09T01:03:15.974Z,10.13
2022-10-09T01:05:54.982Z,7.63
2022-10-09T01:08:30.865Z,8.80
2022-10-09T01:11:23.616Z,7.07
2022-10-09T01:13:57.835Z,7.88
2022-10-09T01:16:26.957Z,9.13
2022-10-09T01:19:02.053Z,8.32
2022-10-09T01:21:35.049Z,11.15
2022-10-09T01:24:26.937Z,10.80
2022-10-09T01:27:04.669Z,10.45
2022-10-09T01:29:36.648Z,12.85
2022-10-09T01:32:05.195Z,12.52
2022-10-09T01:34:33.086Z,12.60
2022-10-09T01:37:00.838Z,13.23
2022-10-09T01:39:29.326Z,9.27
2022-10-09T01:41:57.167Z,11.60
2022-10-09T01:44:27.205Z,10.43
2022-10-09T01:46:54.102Z,10.98
2022-10-09T01:49:43.087Z,12.93
2022-10-09T01:52:37.138Z,12.23
2022-10-09T01:55:26.334Z,13.30
2022-10-09T01:58:01.529Z,9.15
2022-10-09T02:00:33.368Z,10.65
2022-10-09T02:03:01.373Z,12.50
2022-10-09T02:05:30.197Z,9.52
2022-10-09T02:07:58.409Z,9.65
2022-10-09T02:10:26.108Z,9.20
2022-10-09T02:13:00.324Z,16.08
2022-10-09T02:15:33.894Z,9.43
2022-10-09T02:18:08.236Z,11.00
2022-10-09T02:20:39.796Z,9.32
2022-10-09T02:23:08.530Z,11.05
2022-10-09T02:25:35.543Z,11.40
2022-10-09T02:28:03.519Z,14.37
2022-10-09T02:30:39.285Z,11.20
2022-10-09T02:33:06.212Z,12.05
2022-10-09T02:35:33.228Z,12.48
2022-10-09T02:37:59.830Z,10.60
2022-10-09T02:40:26.624Z,13.10
2022-10-09T02:42:53.299Z,12.05
2022-10-09T02:45:20.019Z,10.23
2022-10-09T02:47:46.888Z,13.52
2022-10-09T02:50:13.636Z,15.43
2022-10-09T02:52:40.267Z,10.53
2022-10-09T02:55:07.675Z,11.05
2022-10-09T02:57:34.329Z,11.55
2022-10-09T03:00:01.044Z,13.35
2022-10-09T03:02:27.929Z,12.55
2022-10-09T03:04:54.864Z,11.63
2022-10-09T03:07:21.637Z,11.50
2022-10-09T03:09:48.500Z,12.15
2022-10-09T03:12:21.101Z,13.80
2022-10-09T03:14:47.774Z,13.05
2022-10-09T03:17:14.583Z,17.37
2022-10-09T03:19:41.321Z,14.30
2022-10-09T03:22:07.965Z,13.30
2022-10-09T03:24:34.901Z,12.50
2022-10-09T03:27:01.547Z,14.75
2022-10-09T03:29:28.226Z,15.17
2022-10-09T03:31:55.107Z,12.05
2022-10-09T03:34:21.879Z,13.65
2022-10-09T03:36:48.521Z,14.52
2022-10-09T03:39:15.371Z,15.23
2022-10-09T03:41:42.133Z,15.77
2022-10-09T03:44:08.852Z,12.60
2022-10-09T03:46:35.748Z,15.82
2022-10-09T03:49:02.440Z,14.30
2022-10-09T03:51:29.249Z,17.98
2022-10-09T03:53:56.052Z,13.10
2022-10-09T03:56:23.081Z,11.98
2022-10-09T03:58:49.735Z,13.07
2022-10-09T04:01:16.712Z,20.25
2022-10-09T04:03:43.410Z,13.63
2022-10-09T04:06:10.934Z,15.33
2022-10-09T04:08:37.699Z,17.33
2022-10-09T04:11:04.482Z,12.20
2022-10-09T04:13:31.479Z,11.38
2022-10-09T04:15:58.477Z,15.10
2022-10-09T04:18:25.401Z,13.87
2022-10-09T04:20:54.751Z,13.20
2022-10-09T04:23:25.487Z,12.88
2022-10-09T04:25:54.822Z,11.75
2022-10-09T04:28:22.013Z,18.15
2022-10-09T04:30:49.015Z,14.80
2022-10-09T04:33:15.696Z,15.93
2022-10-09T04:35:49.266Z,14.07
2022-10-09T04:38:16.064Z,15.38
2022-10-09T04:40:42.760Z,13.73
2022-10-09T04:43:09.394Z,13.47
2022-10-09T04:45:40.249Z,16.33
2022-10-09T04:48:07.088Z,17.30
2022-10-09T04:50:33.779Z,14.73
2022-10-09T04:53:00.521Z,15.45
2022-10-09T04:55:27.122Z,11.57
2022-10-09T04:57:54.258Z,19.42
2022-10-09T05:00:21.076Z,14.88
2022-10-09T05:02:48.056Z,14.68
2022-10-09T05:05:14.917Z,16.75
2022-10-09T05:07:41.690Z,14.30
2022-10-09T05:10:08.619Z,15.00
2022-10-09T05:12:35.262Z,14.95
2022-10-09T05:15:02.039Z,12.35
2022-10-09T05:17:28.742Z,11.63
2022-10-09T05:19:55.381Z,14.10
2022-10-09T05:22:22.160Z,10.73
2022-10-09T05:24:48.767Z,12.68
2022-10-09T05:27:15.439Z,16.92
2022-10-09T05:29:42.219Z,12.02
2022-10-09T05:32:09.157Z,12.10
2022-10-09T05:34:35.839Z,17.42
2022-10-09T05:37:02.609Z,14.50
2022-10-09T05:39:29.316Z,12.93
2022-10-09T05:41:57.169Z,15.75
2022-10-09T05:44:24.582Z,15.63
2022-10-09T05:46:51.172Z,12.70
2022-10-09T05:49:17.733Z,11.57
2022-10-09T05:51:44.588Z,14.13
2022-10-09T05:54:15.874Z,15.13
2022-10-09T05:56:44.372Z,18.13
2022-10-09T05:59:14.824Z,13.23
2022-10-09T06:01:44.301Z,12.60
2022-10-09T06:04:20.181Z,12.93
2022-10-09T06:06:48.525Z,13.40
2022-10-09T06:09:24.208Z,15.60
2022-10-09T06:11:52.295Z,14.65
2022-10-09T06:14:21.927Z,16.38
2022-10-09T06:16:49.019Z,18.00
2022-10-09T06:19:17.455Z,15.25
2022-10-09T06:21:44.980Z,13.17
2022-10-09T06:24:25.773Z,16.85
2022-10-09T06:26:55.384Z,16.27
2022-10-09T06:29:22.203Z,15.68
2022-10-09T06:31:49.132Z,16.65
2022-10-09T06:34:15.922Z,13.00
2022-10-09T06:36:42.756Z,14.00
2022-10-09T06:39:10.451Z,14.18
2022-10-09T06:41:37.299Z,12.90
2022-10-09T06:44:22.343Z,12.80
2022-10-09T06:46:49.546Z,12.90
2022-10-09T06:49:16.334Z,12.90
2022-10-09T06:51:43.108Z,11.20
2022-10-09T06:54:16.195Z,12.38
2022-10-09T06:56:42.898Z,11.10
2022-10-09T06:59:11.171Z,10.63
2022-10-09T07:01:38.075Z,11.63
2022-10-09T07:04:13.159Z,11.05
2022-10-09T07:06:42.284Z,12.32
2022-10-09T07:09:12.767Z,12.20
2022-10-09T07:11:43.308Z,12.37
2022-10-09T07:14:12.180Z,10.02
2022-10-09T07:16:44.036Z,10.70
2022-10-09T07:19:12.414Z,10.32
2022-10-09T07:21:42.249Z,12.40
2022-10-09T07:24:09.688Z,11.53
2022-10-09T07:26:39.382Z,11.68
2022-10-09T07:29:08.436Z,10.38
2022-10-09T07:31:35.487Z,12.60
2022-10-09T07:34:03.538Z,10.43
2022-10-09T07:36:30.228Z,9.50
2022-10-09T07:38:58.622Z,11.02
2022-10-09T07:41:27.663Z,11.80
2022-10-09T07:43:54.491Z,11.85
2022-10-09T07:46:22.980Z,8.68
2022-10-09T07:48:51.034Z,11.40
2022-10-09T07:51:26.130Z,9.30
2022-10-09T07:53:53.504Z,11.73
2022-10-09T07:56:22.797Z,10.25
2022-10-09T07:58:51.067Z,10.40
2022-10-09T08:01:20.262Z,12.63
2022-10-09T08:03:47.888Z,9.70
2022-10-09T08:06:15.131Z,10.40
2022-10-09T08:08:41.950Z,11.32
2022-10-09T08:11:10.648Z,10.75
2022-10-09T08:13:37.509Z,11.43
2022-10-09T08:16:05.426Z,10.52
2022-10-09T08:18:32.164Z,10.27
2022-10-09T08:21:01.933Z,10.25
2022-10-09T08:23:29.653Z,13.30
2022-10-09T08:25:56.897Z,9.17
2022-10-09T08:28:23.905Z,8.95
2022-10-09T08:30:50.860Z,11.50
2022-10-09T08:33:22.060Z,10.07
2022-10-09T08:35:52.012Z,11.70
2022-10-09T08:38:44.918Z,12.33
2022-10-09T08:41:11.424Z,11.95
2022-10-09T08:43:44.144Z,11.07
2022-10-09T08:46:28.379Z,12.13
2022-10-09T08:48:55.991Z,12.30
2022-10-09T08:51:29.645Z,11.60
2022-10-09T08:54:04.138Z,9.88
2022-10-09T08:56:33.216Z,10.55
2022-10-09T08:59:02.038Z,9.75
2022-10-09T09:01:39.671Z,10.48
2022-10-09T09:04:09.280Z,10.27
2022-10-09T09:06:41.925Z,10.30
2022-10-09T09:09:30.728Z,10.77
2022-10-09T09:12:06.659Z,10.77
2022-10-09T09:15:00.975Z,10.63
2022-10-09T09:17:42.302Z,9.00
2022-10-09T09:20:16.674Z,12.23
2022-10-09T09:22:48.915Z,8.75
2022-10-09T09:25:33.398Z,8.18
2022-10-09T09:28:12.626Z,9.02
2022-10-09T09:30:45.756Z,8.17
2022-10-09T09:33:24.665Z,8.10
2022-10-09T09:36:02.172Z,9.52
2022-10-09T09:38:30.231Z,9.00
2022-10-09T09:40:57.209Z,9.00
2022-10-09T09:43:26.274Z,10.77
2022-10-09T09:45:55.227Z,9.80
2022-10-09T09:48:34.482Z,8.27
2022-10-09T09:51:27.025Z,7.35
2022-10-09T09:53:54.197Z,8.00
2022-10-09T09:56:21.276Z,7.27
2022-10-09T09:58:55.350Z,7.10
2022-10-09T10:01:24.748Z,7.38
2022-10-09T10:03:54.654Z,7.85
2022-10-09T10:06:25.428Z,7.53
2022-10-09T10:09:02.530Z,9.07
2022-10-09T10:11:31.487Z,8.57
2022-10-09T10:14:06.253Z,6.28
2022-10-09T10:16:38.522Z,6.22
2022-10-09T10:19:06.475Z,9.10
2022-10-09T10:21:46.662Z,6.90
2022-10-09T10:24:18.669Z,8.85
2022-10-09T10:26:55.742Z,7.93
2022-10-09T10:29:35.455Z,8.45
2022-10-09T10:32:13.566Z,6.28
2022-10-09T10:34:45.135Z,6.70
2022-10-09T10:37:11.704Z,7.72
2022-10-09T10:40:00.538Z,7.07
2022-10-09T10:42:36.418Z,6.45
2022-10-09T10:45:09.980Z,8.77
2022-10-09T10:47:42.916Z,8.43
2022-10-09T10:50:15.985Z,7.95
2022-10-09T10:53:00.868Z,9.60
2022-10-09T10:55:49.428Z,7.88
2022-10-09T10:58:27.808Z,9.55
2022-10-09T11:01:04.481Z,6.20
2022-10-09T11:04:03.620Z,8.02
2022-10-09T11:06:43.230Z,8.82
2022-10-09T11:09:22.771Z,8.65
2022-10-09T11:11:56.062Z,8.48
2022-10-09T11:14:45.000Z,12.50
2022-10-09T11:17:20.801Z,8.05
2022-10-09T11:20:07.526Z,8.15
2022-10-09T11:23:01.705Z,6.63
2022-10-09T11:25:32.726Z,9.75
2022-10-09T11:27:59.352Z,6.03
2022-10-09T11:30:28.546Z,7.38
2022-10-09T11:33:28.406Z,7.25
2022-10-09T11:36:16.986Z,6.72
2022-10-09T11:38:48.762Z,7.55
2022-10-09T11:41:16.299Z,9.27
2022-10-09T11:43:53.423Z,9.25
2022-10-09T11:46:40.627Z,9.35
2022-10-09T11:49:17.313Z,8.52
2022-10-09T11:52:09.456Z,9.15
2022-10-09T11:54:36.922Z,8.33
2022-10-09T11:57:06.335Z,10.63
2022-10-09T11:59:41.838Z,11.77
2022-10-09T12:02:24.388Z,6.70
2022-10-09T12:04:55.637Z,9.20
2022-10-09T12:07:34.321Z,7.30
2022-10-09T12:10:21.040Z,8.30
2022-10-09T12:12:58.482Z,11.70
2022-10-09T12:15:35.730Z,7.95
2022-10-09T12:18:15.535Z,7.75
2022-10-09T12:20:46.376Z,7.83
2022-10-09T12:23:26.384Z,7.47
2022-10-09T12:25:56.183Z,8.18
2022-10-09T12:28:43.393Z,8.57
2022-10-09T12:31:22.269Z,7.18
2022-10-09T12:33:54.662Z,7.17
2022-10-09T12:36:27.752Z,8.80
2022-10-09T12:38:55.141Z,7.25
2022-10-09T12:41:27.097Z,8.48
2022-10-09T12:43:55.692Z,8.20
2022-10-09T12:46:40.543Z,8.03
2022-10-09T12:49:19.240Z,8.23
2022-10-09T12:51:56.300Z,9.40
2022-10-09T12:54:25.655Z,7.93
2022-10-09T12:56:55.292Z,7.68
2022-10-09T12:59:23.781Z,9.03
2022-10-09T13:01:57.451Z,9.18
2022-10-09T13:04:32.043Z,10.90
2022-10-09T13:07:03.465Z,8.05
2022-10-09T13:09:37.165Z,9.50
2022-10-09T13:12:09.724Z,8.80
2022-10-09T13:14:43.223Z,9.35
2022-10-09T13:17:33.218Z,6.55
2022-10-09T13:20:03.123Z,6.07
2022-10-09T13:22:35.091Z,7.40
2022-10-09T13:25:04.122Z,7.50
2022-10-09T13:27:39.307Z,8.57
2022-10-09T13:30:07.181Z,8.23
2022-10-09T13:32:33.840Z,7.00
2022-10-09T13:35:00.654Z,8.15
2022-10-09T13:37:27.802Z,8.80
2022-10-09T13:39:57.168Z,8.15
2022-10-09T13:42:27.348Z,9.70
2022-10-09T13:44:54.611Z,6.80
2022-10-09T13:47:24.433Z,8.27
2022-10-09T13:49:51.848Z,7.53
2022-10-09T13:52:18.753Z,7.00
2022-10-09T13:54:45.474Z,8.68
2022-10-09T13:57:12.301Z,8.27
2022-10-09T13:59:39.532Z,7.90
2022-10-09T14:02:06.205Z,7.10
2022-10-09T14:04:33.140Z,8.00
2022-10-09T14:06:59.977Z,7.38
2022-10-09T14:09:26.807Z,5.97
2022-10-09T14:11:53.582Z,7.07
2022-10-09T14:14:22.388Z,9.10
2022-10-09T14:16:50.672Z,7.20
2022-10-09T14:19:18.047Z,8.25
2022-10-09T14:21:46.743Z,8.13
2022-10-09T14:24:14.489Z,7.47
2022-10-09T14:26:41.271Z,7.73
2022-10-09T14:29:09.507Z,6.70
2022-10-09T14:31:36.179Z,8.77
2022-10-09T14:34:03.178Z,10.30
2022-10-09T14:36:30.105Z,8.00
2022-10-09T14:38:59.417Z,7.43
2022-10-09T14:41:26.159Z,8.15
2022-10-09T14:43:59.349Z,8.52
2022-10-09T14:46:28.617Z,7.10
2022-10-09T14:48:56.739Z,7.03
2022-10-09T14:51:26.625Z,7.63
2022-10-09T14:53:58.163Z,7.55
2022-10-09T14:56:26.521Z,6.85
2022-10-09T14:58:53.830Z,6.53
2022-10-09T15:01:22.607Z,11.10
2022-10-09T15:03:49.730Z,6.07
2022-10-09T15:06:20.008Z,7.72
2022-10-09T15:08:47.292Z,9.70
2022-10-09T15:11:14.139Z,7.68
2022-10-09T15:13:40.879Z,8.43
2022-10-09T15:16:18.331Z,7.37
2022-10-09T15:18:45.939Z,6.63
2022-10-09T15:21:15.548Z,6.90
2022-10-09T15:23:43.151Z,7.57
2022-10-09T15:26:10.605Z,5.72
2022-10-09T15:28:38.470Z,6.50
2022-10-09T15:31:07.019Z,7.43
2022-10-09T15:33:33.952Z,6.03
2022-10-09T15:36:00.776Z,6.18
2022-10-09T15:38:27.749Z,8.65
2022-10-09T15:40:56.262Z,8.60
2022-10-09T15:43:25.172Z,5.72
2022-10-09T15:45:54.164Z,6.35
2022-10-09T15:48:23.014Z,7.63
2022-10-09T15:50:53.503Z,6.38
2022-10-09T15:53:22.857Z,7.03
2022-10-09T15:55:51.959Z,7.68
2022-10-09T15:58:18.878Z,6.43
2022-10-09T16:00:48.626Z,6.68
2022-10-09T16:03:17.157Z,6.82
2022-10-09T16:05:48.379Z,5.57
2022-10-09T16:08:17.237Z,5.78
2022-10-09T16:10:48.777Z,6.50
2022-10-09T16:13:16.748Z,6.68
2022-10-09T16:15:47.566Z,5.47
2022-10-09T16:18:20.112Z,5.13
2022-10-09T16:20:47.920Z,5.88
2022-10-09T16:23:15.924Z,7.45
2022-10-09T16:25:43.315Z,7.20
2022-10-09T16:28:12.465Z,8.73
2022-10-09T16:30:40.978Z,7.00
2022-10-09T16:33:12.255Z,5.65
2022-10-09T16:35:39.762Z,6.20
2022-10-09T16:38:07.053Z,6.68
2022-10-09T16:41:03.039Z,7.38
2022-10-09T16:43:20.597Z,8.43
2022-10-09T16:45:47.428Z,7.30
2022-10-09T16:48:14.113Z,8.35
2022-10-09T16:50:42.278Z,7.85
2022-10-09T16:53:09.302Z,6.55
2022-10-09T16:55:36.540Z,9.23
2022-10-09T16:58:03.549Z,8.93
2022-10-09T17:00:30.386Z,8.35
2022-10-09T17:02:57.513Z,7.47
2022-10-09T17:05:25.572Z,6.72
2022-10-09T17:07:52.634Z,7.33
2022-10-09T17:10:19.910Z,6.85
2022-10-09T17:12:46.562Z,8.93
2022-10-09T17:15:13.535Z,9.60
2022-10-09T17:17:42.656Z,10.60
2022-10-09T17:20:10.277Z,12.03
2022-10-09T17:22:37.164Z,10.15
2022-10-09T17:25:05.114Z,11.43
2022-10-09T17:27:31.984Z,8.43
2022-10-09T17:29:58.695Z,9.75
2022-10-09T17:32:25.359Z,9.13
2022-10-09T17:34:52.250Z,9.90
2022-10-09T17:37:18.949Z,8.23
2022-10-09T17:39:51.125Z,7.63
2022-10-09T17:42:19.851Z,6.70
2022-10-09T17:44:46.480Z,6.53
2022-10-09T17:47:13.148Z,7.03
2022-10-09T17:49:39.994Z,9.10
2022-10-09T17:52:06.749Z,7.15
2022-10-09T17:54:33.585Z,6.93
2022-10-09T17:57:01.312Z,8.83
2022-10-09T17:59:28.293Z,7.97
2022-10-09T18:01:55.452Z,5.43
2022-10-09T18:04:22.456Z,6.43
2022-10-09T18:06:49.793Z,9.23
2022-10-09T18:09:17.187Z,6.90
2022-10-09T18:11:44.103Z,6.82
2022-10-09T18:14:12.006Z,7.45
2022-10-09T18:16:39.313Z,8.68
2022-10-09T18:19:13.641Z,8.27
2022-10-09T18:21:43.416Z,9.67
2022-10-09T18:24:10.710Z,11.75
2022-10-09T18:26:38.756Z,10.80
2022-10-09T18:29:05.896Z,12.77
2022-10-09T18:31:33.028Z,12.80
2022-10-09T18:34:00.244Z,14.57
2022-10-09T18:36:33.733Z,18.20
2022-10-09T18:39:05.470Z,14.05
2022-10-09T18:41:34.067Z,11.45
2022-10-09T18:44:01.737Z,10.13
2022-10-09T18:46:35.825Z,10.87
2022-10-09T18:49:10.210Z,14.07
2022-10-09T18:51:38.602Z,14.25
2022-10-09T18:54:07.188Z,9.63
2022-10-09T18:56:35.737Z,13.00
2022-10-09T18:59:12.150Z,10.00
2022-10-09T19:01:42.773Z,9.48
2022-10-09T19:04:10.094Z,10.13
2022-10-09T19:06:38.039Z,14.20
2022-10-09T19:09:05.292Z,11.73
2022-10-09T19:11:33.954Z,10.90
2022-10-09T19:14:00.777Z,10.88
2022-10-09T19:16:30.321Z,9.10
2022-10-09T19:18:57.270Z,9.63
2022-10-09T19:21:24.262Z,10.57
2022-10-09T19:23:53.268Z,9.87
2022-10-09T19:26:21.911Z,9.30
2022-10-09T19:28:48.934Z,8.27
2022-10-09T19:31:15.927Z,7.63
2022-10-09T19:33:43.506Z,9.88
2022-10-09T19:36:13.617Z,10.10
2022-10-09T19:38:41.092Z,10.75
2022-10-09T19:41:10.797Z,10.50
2022-10-09T19:43:38.375Z,6.40
2022-10-09T19:46:07.333Z,6.70
2022-10-09T19:48:35.149Z,7.93
2022-10-09T19:51:07.738Z,6.45
2022-10-09T19:53:35.196Z,8.32
2022-10-09T19:56:05.556Z,8.40
2022-10-09T19:58:32.541Z,8.30
2022-10-09T20:00:59.949Z,7.60
2022-10-09T20:03:26.715Z,9.38
2022-10-09T20:05:53.604Z,9.38
2022-10-09T20:08:20.259Z,7.82
2022-10-09T20:10:47.070Z,10.02
2022-10-09T20:13:14.225Z,7.53
2022-10-09T20:15:42.181Z,8.50
2022-10-09T20:18:09.253Z,9.20
2022-10-09T20:20:36.127Z,19.83
2022-10-09T20:23:02.821Z,12.90
2022-10-09T20:25:29.928Z,10.07
2022-10-09T20:27:56.682Z,12.88
2022-10-09T20:30:23.461Z,10.20
2022-10-09T20:32:56.699Z,11.68
2022-10-09T20:35:25.980Z,11.82
2022-10-09T20:37:53.006Z,15.00
2022-10-09T20:40:20.291Z,11.80
2022-10-09T20:42:47.173Z,10.13
2022-10-09T20:45:14.161Z,12.82
2022-10-09T20:47:40.834Z,13.57
2022-10-09T20:50:08.022Z,11.70
2022-10-09T20:52:34.731Z,10.70
2022-10-09T20:55:01.612Z,10.63
2022-10-09T20:57:28.583Z,10.48
2022-10-09T20:59:56.062Z,11.90
2022-10-09T21:02:22.837Z,9.90
2022-10-09T21:04:49.739Z,11.43
2022-10-09T21:07:16.822Z,8.68
2022-10-09T21:09:43.911Z,9.55
2022-10-09T21:12:10.527Z,8.10
2022-10-09T21:14:37.354Z,9.93
2022-10-09T21:17:04.027Z,7.85
2022-10-09T21:19:30.877Z,11.02
2022-10-09T21:21:57.689Z,20.40
2022-10-09T21:24:25.024Z,17.77
2022-10-09T21:26:51.657Z,23.97
2022-10-09T21:29:18.474Z,32.70
2022-10-09T21:31:45.094Z,21.98
2022-10-09T21:34:12.030Z,13.18
2022-10-09T21:37:08.868Z,12.25
2022-10-09T21:39:34.832Z,14.17
2022-10-09T21:42:01.505Z,13.57
2022-10-09T21:44:28.331Z,14.55
2022-10-09T21:46:55.219Z,14.48
2022-10-09T21:49:24.494Z,15.93
2022-10-09T21:51:51.543Z,16.50
2022-10-09T21:54:18.998Z,17.05
2022-10-09T21:56:45.672Z,12.73
2022-10-09T21:59:12.530Z,14.52
2022-10-09T22:01:39.478Z,12.52
2022-10-09T22:04:06.207Z,18.50
2022-10-09T22:06:32.890Z,13.48
2022-10-09T22:08:59.970Z,10.93
2022-10-09T22:11:26.890Z,10.30
2022-10-09T22:13:55.437Z,10.48
2022-10-09T22:16:22.719Z,11.50
2022-10-09T22:18:49.448Z,8.05
2022-10-09T22:21:17.335Z,9.52
2022-10-09T22:23:44.294Z,9.07
2022-10-09T22:26:14.270Z,8.70
2022-10-09T22:28:41.280Z,7.53
2022-10-09T22:31:15.129Z,8.27
2022-10-09T22:33:42.838Z,11.35
2022-10-09T22:36:15.809Z,12.30
2022-10-09T22:38:44.079Z,8.77
2022-10-09T22:41:16.420Z,8.63
2022-10-09T22:43:45.599Z,8.85
2022-10-09T22:46:15.517Z,9.00
2022-10-09T22:48:43.336Z,7.90
2022-10-09T22:51:13.213Z,10.00
2022-10-09T22:53:40.666Z,9.57
2022-10-09T22:56:11.408Z,7.72
2022-10-09T22:58:38.574Z,8.93
2022-10-09T23:01:12.196Z,8.07
2022-10-09T23:03:39.115Z,7.95
2022-10-09T23:06:17.459Z,10.47
2022-10-09T23:08:46.481Z,9.23
2022-10-09T23:11:14.392Z,8.13
2022-10-09T23:13:41.733Z,8.85
2022-10-09T23:16:10.461Z,9.77
2022-10-09T23:18:38.417Z,8.63
2022-10-09T23:21:07.386Z,7.07
2022-10-09T23:23:34.547Z,10.27
2022-10-09T23:26:09.378Z,9.23
2022-10-09T23:28:36.631Z,9.00
2022-10-09T23:31:08.572Z,8.57
2022-10-09T23:33:36.011Z,9.93
2022-10-09T23:36:03.900Z,8.88
2022-10-09T23:38:30.780Z,9.05
2022-10-09T23:40:59.304Z,9.13
2022-10-09T23:43:27.244Z,8.30
2022-10-09T23:45:58.751Z,9.82
2022-10-09T23:48:26.763Z,8.70
2022-10-09T23:50:54.849Z,10.05
2022-10-09T23:53:22.852Z,10.40
2022-10-09T23:55:49.530Z,8.07
2022-10-09T23:58:20.679Z,8.73
